1979 22P:MELI (1979083S15184)


On this page: IBTrACS data - Map and Plots - Positions - Intensities - Original source data

Summary

Start Mar 24
End Mar 31
Basin SP
LMI 115 kt
Sources jtwc_sh
wellington
td9636
neumann
ds824_sh
In WMO? Yes
Previous storm 1979 21S (SI)
Previous in basin 1979 17P (SP)
Concurrent storms 1979 BESS (WP)
1979 21S (SI)
1979 22P (SP)
1979 23P (SP)
Next in basin 1979 23P (SP)
Next storm 1979 23P (SP)

top of page IBTrACS Data: File Access

No storm imagery available

top of page Plots:

Map of storm track will not appear if FTP is down
Time series of cyclone Maximum Sustained Wind will not appear if FTP is down
Time series of cyclone Minimum Central Pressure will not appear if FTP is down

top of page Track Data:Position

jtwc_sh wellington td9636 neumann ds824_sh
Date Lat Lon Lat Lon Lat Lon Lat Lon Lat Lon
1979-03-24 00:00:00 -15.0 -176.0 -15.0 181.5 -15.0 184.0 -15.0 -176.0 -15.0 184.0
1979-03-24 06:00:00 -15.2 -175.5 -15.0 182.6 -15.2 184.5 -15.2 -175.5 -15.2 184.5
1979-03-24 12:00:00 -15.4 -175.0 -15.0 183.5 -15.4 185.0 -15.4 -175.0 -15.4 185.0
1979-03-24 18:00:00 -15.7 -174.5 -15.2 184.1 -15.6 185.5 -15.7 -174.6 -15.7 185.5
1979-03-25 00:00:00 -16.0 -174.2 -15.5 184.5 -16.0 185.8 -16.0 -174.2 -16.0 185.8
1979-03-25 06:00:00 -16.5 -174.2 -15.8 184.7 -16.6 185.8 -16.6 -174.2 -16.5 185.8
1979-03-25 12:00:00 -17.1 -174.5 -16.1 184.7 -17.1 185.5 -17.1 -174.5 -17.1 185.5
1979-03-25 18:00:00 -17.4 -174.9 -16.5 184.6 -17.4 185.1 -17.4 -175.0 -17.4 185.1
1979-03-26 00:00:00 -17.5 -175.5 -17.0 184.2 -17.5 184.5 -17.5 -175.5 -17.5 184.5
1979-03-26 06:00:00 -17.3 -176.2 -17.4 183.8 -17.3 183.8 -17.3 -176.3 -17.3 183.8
1979-03-26 12:00:00 -17.2 -177.1 -17.8 183.0 -17.2 182.9 -17.2 -177.1 -17.2 182.9
1979-03-26 18:00:00 -17.6 -178.1 -18.1 181.8 -17.5 181.9 -17.6 -178.2 -17.6 181.9
1979-03-27 00:00:00 -18.0 -179.2 -18.3 180.5 -18.0 180.8 -18.0 -179.2 -18.0 180.8
1979-03-27 06:00:00 -18.1 179.7 -18.5 179.5 -18.2 179.7 -18.2 179.6 -18.1 179.7
1979-03-27 12:00:00 -18.5 178.5 -18.8 178.5 -18.5 178.5 -18.5 178.5 -18.5 178.5
1979-03-27 18:00:00 -19.2 177.4 -19.3 176.9 -19.2 177.3 -19.1 177.3 -19.2 177.4
1979-03-28 00:00:00 -20.0 176.2 -20.0 175.5 -20.0 176.2 -20.0 176.2 -20.0 176.2
1979-03-28 06:00:00 -20.7 175.4 -20.8 174.7 -20.7 175.4 -20.7 175.5 -20.7 175.4
1979-03-28 12:00:00 -21.5 175.0 -21.7 174.3 -21.5 175.0 -21.5 175.0 -21.5 175.0
1979-03-28 18:00:00 -22.3 174.8 -22.5 174.2 -22.3 174.8 -22.4 174.8 -22.3 174.8
1979-03-29 00:00:00 -23.3 175.0 -23.5 174.5 -23.3 175.0 -23.3 175.0 -23.3 175.0
1979-03-29 06:00:00 -24.3 175.5 -24.7 175.2 -24.3 175.5 -24.5 175.7 -24.3 175.5
1979-03-29 12:00:00 -25.5 176.6 -26.0 176.5 -25.5 176.6 -25.5 176.6 -25.5 176.6
1979-03-29 18:00:00 -27.0 178.4 -27.2 178.3 -27.0 178.3 -27.1 178.5 -27.0 178.4
1979-03-30 00:00:00 -28.5 -179.5 -28.5 180.5 -28.5 180.5 -28.5 -179.5 -28.5 180.5
jtwc_sh wellington td9636 neumann ds824_sh
1979-03-30 06:00:00 -29.7 -177.4 -29.6 182.5 -29.7 182.5 -29.8 -177.3 -29.7 182.6
1979-03-30 12:00:00 -31.0 -175.0 -31.0 185.0 -31.0 185.0 -31.0 -175.0 -31.0 185.0
1979-03-30 18:00:00 -32.8 -171.8 -32.8 188.2 -32.8 188.2 -33.0 -171.5 -32.8 188.2
1979-03-31 00:00:00 -35.0 -168.0 -35.0 192.0 -35.0 192.0 -35.0 -168.0 -35.0 192.0
1979-03-31 06:00:00 -37.4 -164.1 -37.4 196.0 -37.4 196.0 -37.5 -164.0 -37.4 195.9
1979-03-31 12:00:00 -40.0 -160.0 -40.0 200.0 -40.0 200.0 -40.0 -160.0 -40.0 200.0

top of pageTrack Data:Intensity

jtwc_sh wellington td9636 neumann ds824_sh
Date Wind Pres Wind Pres Wind Pres Wind Pres Wind Pres
1979-03-24 00:00:00 25. 30. 997. 30. 25.
1979-03-24 06:00:00 30. 30. 997. 25. 30.
1979-03-24 12:00:00 35. 30. 997. 25. 25. 35.
1979-03-24 18:00:00 35. 30. 997. 25. 30. 35.
1979-03-25 00:00:00 40. 40. 990. 35. 35. 40.
1979-03-25 06:00:00 50. 40. 990. 35. 35. 50.
1979-03-25 12:00:00 60. 40. 990. 40. 40. 60.
1979-03-25 18:00:00 80. 40. 990. 40. 50. 80.
1979-03-26 00:00:00 95. 55. 980. 60. 60. 95.
1979-03-26 06:00:00 105. 55. 980. 60. 75. 105.
1979-03-26 12:00:00 110. 65. 970. 95. 95. 110.
1979-03-26 18:00:00 115. 65. 970. 95. 100. 115.
1979-03-27 00:00:00 115. 80. 955. 110. 110. 115.
1979-03-27 06:00:00 115. 80. 955. 110. 110. 115.
1979-03-27 12:00:00 110. 70. 965. 115. 115. 110.
1979-03-27 18:00:00 110. 70. 965. 115. 110. 110.
1979-03-28 00:00:00 110. 85. 945. 110. 110. 110.
1979-03-28 06:00:00 100. 85. 945. 110. 110. 100.
1979-03-28 12:00:00 90. 70. 965. 110. 110. 90.
1979-03-28 18:00:00 80. 70. 965. 110. 105. 80.
1979-03-29 00:00:00 70. 80. 955. 90. 90. 70.
1979-03-29 06:00:00 60. 80. 955. 90. 80. 60.
1979-03-29 12:00:00 50. 65. 970. 70. 70. 50.
1979-03-29 18:00:00 50. 65. 970. 70. 60. 50.
1979-03-30 00:00:00 50. 55. 980. 50. 50. 50.
jtwc_sh wellington td9636 neumann ds824_sh
1979-03-30 06:00:00 50. 55. 980. 50. 50. 50.
1979-03-30 12:00:00 50. 55. 980. 50. 50. 50.
1979-03-30 18:00:00 45. 55. 980. 50. 45. 45.
1979-03-31 00:00:00 45. 40. 990. 45. 45. 45.
1979-03-31 06:00:00 40. 990. 45. 40.
1979-03-31 12:00:00 40. 990. 35.

top of page Links to source data

Source Source file Format
jtwc_sh bsh221979.txt ATCF
wellington TC_BT_1967_2006.csv:Line=1314:MELI Text table
td9636 cons_worldwide_trop_cyclone_18710101-19891231-006:Line=10881 TD 9636
neumann tracks.sh:Storm=555:MELI:BSH2279:JTWC HURDAT
ds824_sh s_hem.dat:1400:22P HURDAT